Trapani, Italy

9:51 PM CEST on October 21, 2014 (GMT +0200)
Trapani Palma iw9gtd | Change Station
CLOSE
Current Station
Personal Weather Station
Location: Trapani, SICILIA
Elevation: 72 ft
Nearby Weather Stations

Elev 72 ft 37.95 °N, 12.51 °E | Updated 8 minutes ago

Partly Cloudy
Partly Cloudy
72.0 °F
Feels Like 71 °F
N
0.9
Wind Variable Wind from South
Gusts 1.3 mph

Today
High -- | Low -- °F
--% Chance of Precip.
Yesterday
High -- | Low -- °F
Precip. -- in
7:24 AM 6:24 PM
Waning Crescent, 4% visible
Pressure 29.98 in
Visibility 6.2 miles
Clouds Few 1800 ft
Heat Index 71 °F
Dew Point 67 °F
Humidity 85%
Rainfall 0.00 in
Snow Depth Not available.
UV 0 out of 12
Pollen Not available.
Air Quality Not available.
Flu Activity Not available.
METAR LICJ 211920Z 17008KT 9999 FEW018 21/18 Q1015

More Conditions Fewer Conditions

Pressure 29.98 in
Visibility 6.2 miles
Clouds Few 1800 ft
Heat Index 71 °F
Dew Point 67 °F
Humidity 85%
Rainfall 0.00 in
Snow Depth Not available.
UV 0 out of 12
Pollen Not available.
Air Quality Not available.
Flu Activity Not available.
METAR LICJ 211920Z 17008KT 9999 FEW018 21/18 Q1015

More Conditions Fewer Conditions

10-Day Weather Forecast

Almanac

Astronomy

Oct. 21, 2014 Rise Set
Actual Time 7:24 AM CEST 6:24 PM CEST
Civil Twilight 6:57 AM CEST 6:51 PM CEST
Nautical Twilight 6:26 AM CEST 7:21 PM CEST
Astronomical Twilight 5:56 AM CEST 7:52 PM CEST
Moon 4:54 AM CEST 5:07 PM CEST
Length of Visible Light 11h 53m
Length of Day
11h 00m
Tomorrow will be 2m 17s shorter.
Waning Crescent, 4% of the Moon is Illuminated
Today
Waning Crescent
Oct 23
New
Oct 30
First Quarter
Nov 6
Full
Nov 14
Last Quarter

Today's Extremes

Country Highs Country Lows

Community

WunderPhotos

Upload Photos

1,763,754 photos uploaded!

Nearby

Snow Depth

Not available.

Earthquake Activity

City Distance Mag. Time & Date
No recent earthquake activity has been reported nearby.
Minimum magnitude displayed is 2.5.

Coastal Water Temperatures

Place Temperature
No Stations Reporting

Nearby Weather Stations